sensor_id;sensor_type;location;lat;lon;timestamp;P1;durP1;ratioP1;P2;durP2;ratioP2
42430;SDS011;71905;47.466;19.024;2024-02-23T00:02:05;4.85;;;2.53;;
42430;SDS011;71905;47.466;19.024;2024-02-23T00:04:33;3.45;;;2.20;;
42430;SDS011;71905;47.466;19.024;2024-02-23T00:07:02;5.00;;;2.28;;
42430;SDS011;71905;47.466;19.024;2024-02-23T00:09:30;5.22;;;2.17;;
42430;SDS011;71905;47.466;19.024;2024-02-23T00:11:58;4.57;;;2.22;;
42430;SDS011;71905;47.466;19.024;2024-02-23T00:14:26;3.05;;;2.00;;
42430;SDS011;71905;47.466;19.024;2024-02-23T00:16:57;4.03;;;2.15;;
42430;SDS011;71905;47.466;19.024;2024-02-23T00:19:25;3.38;;;2.10;;
42430;SDS011;71905;47.466;19.024;2024-02-23T00:21:53;4.60;;;2.50;;
42430;SDS011;71905;47.466;19.024;2024-02-23T00:24:22;4.72;;;2.58;;
42430;SDS011;71905;47.466;19.024;2024-02-23T00:26:50;4.47;;;2.20;;
42430;SDS011;71905;47.466;19.024;2024-02-23T00:29:19;4.10;;;2.47;;
42430;SDS011;71905;47.466;19.024;2024-02-23T00:31:49;4.18;;;2.40;;
42430;SDS011;71905;47.466;19.024;2024-02-23T00:34:17;4.45;;;2.33;;
42430;SDS011;71905;47.466;19.024;2024-02-23T00:36:45;3.50;;;2.33;;
42430;SDS011;71905;47.466;19.024;2024-02-23T00:39:15;3.75;;;2.10;;
42430;SDS011;71905;47.466;19.024;2024-02-23T00:41:43;3.05;;;2.13;;
42430;SDS011;71905;47.466;19.024;2024-02-23T00:44:11;6.32;;;2.20;;
42430;SDS011;71905;47.466;19.024;2024-02-23T00:46:40;8.15;;;2.50;;
42430;SDS011;71905;47.466;19.024;2024-02-23T00:49:09;3.58;;;2.00;;
42430;SDS011;71905;47.466;19.024;2024-02-23T00:51:37;4.97;;;2.50;;
42430;SDS011;71905;47.466;19.024;2024-02-23T00:54:05;3.60;;;2.13;;
42430;SDS011;71905;47.466;19.024;2024-02-23T00:56:34;6.82;;;2.40;;
42430;SDS011;71905;47.466;19.024;2024-02-23T00:59:16;5.30;;;2.50;;
42430;SDS011;71905;47.466;19.024;2024-02-23T01:01:44;3.92;;;2.33;;
42430;SDS011;71905;47.466;19.024;2024-02-23T01:04:14;5.22;;;2.40;;
42430;SDS011;71905;47.466;19.024;2024-02-23T01:06:42;7.63;;;2.58;;
42430;SDS011;71905;47.466;19.024;2024-02-23T01:09:10;6.10;;;2.75;;
42430;SDS011;71905;47.466;19.024;2024-02-23T01:11:38;5.75;;;2.78;;
42430;SDS011;71905;47.466;19.024;2024-02-23T01:14:06;3.83;;;2.28;;
42430;SDS011;71905;47.466;19.024;2024-02-23T01:16:34;6.68;;;2.90;;
42430;SDS011;71905;47.466;19.024;2024-02-23T01:19:02;5.95;;;2.80;;
42430;SDS011;71905;47.466;19.024;2024-02-23T01:21:31;5.45;;;2.95;;
42430;SDS011;71905;47.466;19.024;2024-02-23T01:23:59;5.30;;;2.65;;
42430;SDS011;71905;47.466;19.024;2024-02-23T01:26:27;4.75;;;2.75;;
42430;SDS011;71905;47.466;19.024;2024-02-23T01:28:55;4.80;;;2.75;;
42430;SDS011;71905;47.466;19.024;2024-02-23T01:31:23;4.78;;;2.70;;
42430;SDS011;71905;47.466;19.024;2024-02-23T01:33:51;6.15;;;2.83;;
42430;SDS011;71905;47.466;19.024;2024-02-23T01:36:19;6.22;;;2.90;;
42430;SDS011;71905;47.466;19.024;2024-02-23T01:38:49;3.97;;;2.63;;
42430;SDS011;71905;47.466;19.024;2024-02-23T01:41:17;4.65;;;3.08;;
42430;SDS011;71905;47.466;19.024;2024-02-23T01:43:45;5.28;;;3.08;;
42430;SDS011;71905;47.466;19.024;2024-02-23T01:46:13;5.05;;;2.88;;
42430;SDS011;71905;47.466;19.024;2024-02-23T01:48:45;7.40;;;2.80;;
42430;SDS011;71905;47.466;19.024;2024-02-23T01:51:13;4.82;;;3.00;;
42430;SDS011;71905;47.466;19.024;2024-02-23T01:53:41;6.75;;;3.13;;
42430;SDS011;71905;47.466;19.024;2024-02-23T01:56:11;3.80;;;2.72;;
42430;SDS011;71905;47.466;19.024;2024-02-23T01:58:45;5.63;;;2.90;;
42430;SDS011;71905;47.466;19.024;2024-02-23T02:01:14;5.63;;;3.00;;
42430;SDS011;71905;47.466;19.024;2024-02-23T02:03:42;7.25;;;3.00;;
42430;SDS011;71905;47.466;19.024;2024-02-23T02:06:10;4.93;;;3.20;;
42430;SDS011;71905;47.466;19.024;2024-02-23T02:08:39;6.90;;;3.10;;
42430;SDS011;71905;47.466;19.024;2024-02-23T02:11:09;6.32;;;3.10;;
42430;SDS011;71905;47.466;19.024;2024-02-23T02:13:38;5.78;;;3.10;;
42430;SDS011;71905;47.466;19.024;2024-02-23T02:16:06;6.28;;;2.80;;
42430;SDS011;71905;47.466;19.024;2024-02-23T02:18:35;5.63;;;2.90;;
42430;SDS011;71905;47.466;19.024;2024-02-23T02:21:03;3.55;;;2.58;;
42430;SDS011;71905;47.466;19.024;2024-02-23T02:23:31;4.38;;;2.97;;
42430;SDS011;71905;47.466;19.024;2024-02-23T02:25:59;5.75;;;2.58;;
42430;SDS011;71905;47.466;19.024;2024-02-23T02:28:27;3.95;;;2.67;;
42430;SDS011;71905;47.466;19.024;2024-02-23T02:30:57;4.85;;;3.10;;
42430;SDS011;71905;47.466;19.024;2024-02-23T02:33:25;3.50;;;2.72;;
42430;SDS011;71905;47.466;19.024;2024-02-23T02:35:53;7.13;;;3.15;;
42430;SDS011;71905;47.466;19.024;2024-02-23T02:38:21;5.40;;;3.28;;
42430;SDS011;71905;47.466;19.024;2024-02-23T02:40:49;4.32;;;3.05;;
42430;SDS011;71905;47.466;19.024;2024-02-23T02:43:17;5.47;;;3.00;;
42430;SDS011;71905;47.466;19.024;2024-02-23T02:45:45;5.93;;;2.95;;
42430;SDS011;71905;47.466;19.024;2024-02-23T02:48:15;5.72;;;2.88;;
42430;SDS011;71905;47.466;19.024;2024-02-23T02:50:43;5.15;;;3.05;;
42430;SDS011;71905;47.466;19.024;2024-02-23T02:53:12;5.30;;;2.90;;
42430;SDS011;71905;47.466;19.024;2024-02-23T02:55:41;4.75;;;3.00;;
42430;SDS011;71905;47.466;19.024;2024-02-23T02:58:10;5.30;;;3.10;;
42430;SDS011;71905;47.466;19.024;2024-02-23T03:00:39;4.28;;;2.80;;
42430;SDS011;71905;47.466;19.024;2024-02-23T03:03:07;6.63;;;2.80;;
42430;SDS011;71905;47.466;19.024;2024-02-23T03:05:36;6.32;;;3.15;;
42430;SDS011;71905;47.466;19.024;2024-02-23T03:08:04;5.25;;;2.90;;
42430;SDS011;71905;47.466;19.024;2024-02-23T03:10:33;5.40;;;3.10;;
42430;SDS011;71905;47.466;19.024;2024-02-23T03:13:01;4.65;;;3.03;;
42430;SDS011;71905;47.466;19.024;2024-02-23T03:15:29;5.03;;;3.10;;
42430;SDS011;71905;47.466;19.024;2024-02-23T03:17:57;6.20;;;3.63;;
42430;SDS011;71905;47.466;19.024;2024-02-23T03:20:27;7.88;;;3.20;;
42430;SDS011;71905;47.466;19.024;2024-02-23T03:22:57;6.70;;;3.50;;
42430;SDS011;71905;47.466;19.024;2024-02-23T03:25:25;4.70;;;3.10;;
42430;SDS011;71905;47.466;19.024;2024-02-23T03:27:53;6.72;;;3.58;;
42430;SDS011;71905;47.466;19.024;2024-02-23T03:30:21;6.75;;;3.30;;
42430;SDS011;71905;47.466;19.024;2024-02-23T03:32:49;5.72;;;3.35;;
42430;SDS011;71905;47.466;19.024;2024-02-23T03:35:17;5.05;;;3.60;;
42430;SDS011;71905;47.466;19.024;2024-02-23T03:37:45;5.50;;;3.20;;
42430;SDS011;71905;47.466;19.024;2024-02-23T03:40:15;5.05;;;3.42;;
42430;SDS011;71905;47.466;19.024;2024-02-23T03:42:44;7.32;;;4.22;;
42430;SDS011;71905;47.466;19.024;2024-02-23T03:45:12;5.13;;;3.60;;
42430;SDS011;71905;47.466;19.024;2024-02-23T03:47:40;6.20;;;3.40;;
42430;SDS011;71905;47.466;19.024;2024-02-23T03:50:09;7.13;;;3.80;;
42430;SDS011;71905;47.466;19.024;2024-02-23T03:52:37;5.85;;;3.70;;
42430;SDS011;71905;47.466;19.024;2024-02-23T03:55:06;5.53;;;3.72;;
42430;SDS011;71905;47.466;19.024;2024-02-23T03:57:35;4.60;;;3.25;;
42430;SDS011;71905;47.466;19.024;2024-02-23T04:00:04;5.25;;;3.53;;
42430;SDS011;71905;47.466;19.024;2024-02-23T04:02:39;5.50;;;3.45;;
42430;SDS011;71905;47.466;19.024;2024-02-23T04:05:07;5.75;;;3.38;;
42430;SDS011;71905;47.466;19.024;2024-02-23T04:07:35;4.70;;;3.20;;
42430;SDS011;71905;47.466;19.024;2024-02-23T04:10:03;4.78;;;3.10;;
42430;SDS011;71905;47.466;19.024;2024-02-23T04:12:32;4.70;;;2.92;;
42430;SDS011;71905;47.466;19.024;2024-02-23T04:15:02;5.18;;;2.97;;
42430;SDS011;71905;47.466;19.024;2024-02-23T04:17:30;5.97;;;3.17;;
42430;SDS011;71905;47.466;19.024;2024-02-23T04:19:59;5.68;;;3.08;;
42430;SDS011;71905;47.466;19.024;2024-02-23T04:22:32;5.47;;;3.38;;
42430;SDS011;71905;47.466;19.024;2024-02-23T04:25:00;5.13;;;3.00;;
42430;SDS011;71905;47.466;19.024;2024-02-23T04:27:29;5.45;;;3.10;;
42430;SDS011;71905;47.466;19.024;2024-02-23T04:29:57;6.60;;;3.13;;
42430;SDS011;71905;47.466;19.024;2024-02-23T04:32:26;6.18;;;3.40;;
42430;SDS011;71905;47.466;19.024;2024-02-23T04:37:43;5.20;;;3.58;;
42430;SDS011;71905;47.466;19.024;2024-02-23T04:40:11;7.00;;;3.80;;
42430;SDS011;71905;47.466;19.024;2024-02-23T04:42:39;6.82;;;3.38;;
42430;SDS011;71905;47.466;19.024;2024-02-23T04:45:07;6.20;;;3.22;;
42430;SDS011;71905;47.466;19.024;2024-02-23T04:47:37;5.45;;;3.10;;
42430;SDS011;71905;47.466;19.024;2024-02-23T04:50:07;6.20;;;3.17;;
42430;SDS011;71905;47.466;19.024;2024-02-23T04:52:36;5.40;;;2.90;;
42430;SDS011;71905;47.466;19.024;2024-02-23T04:55:04;7.50;;;3.30;;
42430;SDS011;71905;47.466;19.024;2024-02-23T04:57:33;5.32;;;2.92;;
42430;SDS011;71905;47.466;19.024;2024-02-23T05:00:01;5.57;;;3.13;;
42430;SDS011;71905;47.466;19.024;2024-02-23T05:02:30;5.97;;;2.90;;
42430;SDS011;71905;47.466;19.024;2024-02-23T05:05:03;5.70;;;2.78;;
42430;SDS011;71905;47.466;19.024;2024-02-23T05:07:32;5.78;;;2.65;;
42430;SDS011;71905;47.466;19.024;2024-02-23T05:10:00;5.15;;;2.63;;
42430;SDS011;71905;47.466;19.024;2024-02-23T05:12:28;4.13;;;2.70;;
42430;SDS011;71905;47.466;19.024;2024-02-23T05:14:56;4.13;;;2.42;;
42430;SDS011;71905;47.466;19.024;2024-02-23T05:17:24;4.57;;;2.33;;
42430;SDS011;71905;47.466;19.024;2024-02-23T05:19:52;4.97;;;2.55;;
42430;SDS011;71905;47.466;19.024;2024-02-23T05:22:22;4.97;;;2.58;;
42430;SDS011;71905;47.466;19.024;2024-02-23T05:24:50;4.40;;;2.50;;
42430;SDS011;71905;47.466;19.024;2024-02-23T05:27:19;4.60;;;2.67;;
42430;SDS011;71905;47.466;19.024;2024-02-23T05:29:47;5.50;;;2.65;;
42430;SDS011;71905;47.466;19.024;2024-02-23T05:32:15;6.75;;;3.05;;
42430;SDS011;71905;47.466;19.024;2024-02-23T05:34:43;4.68;;;2.65;;
42430;SDS011;71905;47.466;19.024;2024-02-23T05:37:11;4.50;;;2.67;;
42430;SDS011;71905;47.466;19.024;2024-02-23T05:39:41;4.72;;;2.70;;
42430;SDS011;71905;47.466;19.024;2024-02-23T05:42:12;6.00;;;2.65;;
42430;SDS011;71905;47.466;19.024;2024-02-23T05:44:42;7.60;;;2.78;;
42430;SDS011;71905;47.466;19.024;2024-02-23T05:47:11;5.10;;;2.95;;
42430;SDS011;71905;47.466;19.024;2024-02-23T05:49:40;4.78;;;2.90;;
42430;SDS011;71905;47.466;19.024;2024-02-23T05:52:08;5.22;;;2.33;;
42430;SDS011;71905;47.466;19.024;2024-02-23T05:54:36;4.97;;;2.35;;
42430;SDS011;71905;47.466;19.024;2024-02-23T05:57:06;6.00;;;2.33;;
42430;SDS011;71905;47.466;19.024;2024-02-23T05:59:34;3.75;;;2.53;;
42430;SDS011;71905;47.466;19.024;2024-02-23T06:02:02;4.93;;;2.70;;
42430;SDS011;71905;47.466;19.024;2024-02-23T06:04:30;5.00;;;2.88;;
42430;SDS011;71905;47.466;19.024;2024-02-23T06:06:58;5.43;;;2.60;;
42430;SDS011;71905;47.466;19.024;2024-02-23T06:09:27;6.93;;;2.92;;
42430;SDS011;71905;47.466;19.024;2024-02-23T06:11:57;7.75;;;3.22;;
42430;SDS011;71905;47.466;19.024;2024-02-23T06:14:27;5.57;;;4.13;;
42430;SDS011;71905;47.466;19.024;2024-02-23T06:16:55;5.90;;;3.65;;
42430;SDS011;71905;47.466;19.024;2024-02-23T06:19:23;7.47;;;4.25;;
42430;SDS011;71905;47.466;19.024;2024-02-23T06:21:51;9.07;;;3.70;;
42430;SDS011;71905;47.466;19.024;2024-02-23T06:24:19;9.52;;;4.03;;
42430;SDS011;71905;47.466;19.024;2024-02-23T06:26:47;7.72;;;4.20;;
42430;SDS011;71905;47.466;19.024;2024-02-23T06:29:16;7.72;;;3.88;;
42430;SDS011;71905;47.466;19.024;2024-02-23T06:31:45;5.43;;;3.38;;
42430;SDS011;71905;47.466;19.024;2024-02-23T06:34:15;6.07;;;3.40;;
42430;SDS011;71905;47.466;19.024;2024-02-23T06:36:43;7.15;;;3.58;;
42430;SDS011;71905;47.466;19.024;2024-02-23T06:39:11;7.15;;;3.83;;
42430;SDS011;71905;47.466;19.024;2024-02-23T06:41:40;7.72;;;4.35;;
42430;SDS011;71905;47.466;19.024;2024-02-23T06:44:08;7.13;;;4.05;;
42430;SDS011;71905;47.466;19.024;2024-02-23T06:46:36;7.82;;;4.45;;
42430;SDS011;71905;47.466;19.024;2024-02-23T06:49:06;6.78;;;4.22;;
42430;SDS011;71905;47.466;19.024;2024-02-23T06:51:34;7.70;;;4.40;;
42430;SDS011;71905;47.466;19.024;2024-02-23T06:54:02;11.65;;;7.85;;
42430;SDS011;71905;47.466;19.024;2024-02-23T06:56:31;10.85;;;5.68;;
42430;SDS011;71905;47.466;19.024;2024-02-23T06:58:59;9.20;;;4.65;;
42430;SDS011;71905;47.466;19.024;2024-02-23T07:01:27;8.88;;;5.18;;
42430;SDS011;71905;47.466;19.024;2024-02-23T07:03:55;9.00;;;5.95;;
42430;SDS011;71905;47.466;19.024;2024-02-23T07:06:25;8.18;;;5.32;;
42430;SDS011;71905;47.466;19.024;2024-02-23T07:08:55;8.32;;;5.30;;
42430;SDS011;71905;47.466;19.024;2024-02-23T07:11:23;10.98;;;5.28;;
42430;SDS011;71905;47.466;19.024;2024-02-23T07:13:51;8.18;;;5.40;;
42430;SDS011;71905;47.466;19.024;2024-02-23T07:16:19;7.40;;;5.00;;
42430;SDS011;71905;47.466;19.024;2024-02-23T07:18:47;6.68;;;4.82;;
42430;SDS011;71905;47.466;19.024;2024-02-23T07:21:17;6.38;;;4.82;;
42430;SDS011;71905;47.466;19.024;2024-02-23T07:23:46;6.90;;;5.03;;
42430;SDS011;71905;47.466;19.024;2024-02-23T07:26:14;8.00;;;4.68;;
42430;SDS011;71905;47.466;19.024;2024-02-23T07:28:42;9.23;;;5.82;;
42430;SDS011;71905;47.466;19.024;2024-02-23T07:31:10;8.77;;;4.93;;
42430;SDS011;71905;47.466;19.024;2024-02-23T07:33:38;8.85;;;4.82;;
42430;SDS011;71905;47.466;19.024;2024-02-23T07:36:07;10.95;;;5.47;;
42430;SDS011;71905;47.466;19.024;2024-02-23T07:38:35;7.72;;;5.10;;
42430;SDS011;71905;47.466;19.024;2024-02-23T07:41:04;10.82;;;5.25;;
42430;SDS011;71905;47.466;19.024;2024-02-23T07:43:32;7.75;;;4.70;;
42430;SDS011;71905;47.466;19.024;2024-02-23T07:46:01;7.75;;;4.90;;
42430;SDS011;71905;47.466;19.024;2024-02-23T07:48:31;8.57;;;5.22;;
42430;SDS011;71905;47.466;19.024;2024-02-23T07:50:59;8.85;;;5.68;;
42430;SDS011;71905;47.466;19.024;2024-02-23T07:53:27;8.35;;;5.05;;
42430;SDS011;71905;47.466;19.024;2024-02-23T07:55:55;7.70;;;5.20;;
42430;SDS011;71905;47.466;19.024;2024-02-23T07:58:27;9.07;;;5.40;;
42430;SDS011;71905;47.466;19.024;2024-02-23T08:00:55;9.32;;;5.47;;
42430;SDS011;71905;47.466;19.024;2024-02-23T08:03:23;12.50;;;6.53;;
42430;SDS011;71905;47.466;19.024;2024-02-23T08:05:52;14.00;;;6.38;;
42430;SDS011;71905;47.466;19.024;2024-02-23T08:08:20;8.50;;;5.00;;
42430;SDS011;71905;47.466;19.024;2024-02-23T08:10:50;9.43;;;5.30;;
42430;SDS011;71905;47.466;19.024;2024-02-23T08:13:18;9.10;;;5.95;;
42430;SDS011;71905;47.466;19.024;2024-02-23T08:15:47;8.68;;;5.60;;
42430;SDS011;71905;47.466;19.024;2024-02-23T08:18:16;11.52;;;6.70;;
42430;SDS011;71905;47.466;19.024;2024-02-23T08:20:44;11.02;;;6.82;;
42430;SDS011;71905;47.466;19.024;2024-02-23T08:23:12;8.65;;;6.40;;
42430;SDS011;71905;47.466;19.024;2024-02-23T08:25:40;12.80;;;6.43;;
42430;SDS011;71905;47.466;19.024;2024-02-23T08:28:08;9.48;;;5.85;;
42430;SDS011;71905;47.466;19.024;2024-02-23T08:30:36;8.80;;;6.05;;
42430;SDS011;71905;47.466;19.024;2024-02-23T08:33:05;9.02;;;6.53;;
42430;SDS011;71905;47.466;19.024;2024-02-23T08:35:35;9.80;;;6.50;;
42430;SDS011;71905;47.466;19.024;2024-02-23T08:38:04;7.70;;;5.88;;
42430;SDS011;71905;47.466;19.024;2024-02-23T08:40:32;9.55;;;6.03;;
42430;SDS011;71905;47.466;19.024;2024-02-23T08:43:00;8.65;;;6.03;;
42430;SDS011;71905;47.466;19.024;2024-02-23T08:45:28;9.15;;;5.78;;
42430;SDS011;71905;47.466;19.024;2024-02-23T08:47:56;8.98;;;6.03;;
42430;SDS011;71905;47.466;19.024;2024-02-23T08:50:25;7.80;;;6.03;;
42430;SDS011;71905;47.466;19.024;2024-02-23T08:52:54;8.52;;;6.18;;
42430;SDS011;71905;47.466;19.024;2024-02-23T08:55:21;8.95;;;5.80;;
42430;SDS011;71905;47.466;19.024;2024-02-23T08:57:49;7.78;;;5.55;;
42430;SDS011;71905;47.466;19.024;2024-02-23T09:00:18;8.00;;;6.07;;
42430;SDS011;71905;47.466;19.024;2024-02-23T09:02:46;11.85;;;6.10;;
42430;SDS011;71905;47.466;19.024;2024-02-23T09:05:14;11.30;;;6.38;;
42430;SDS011;71905;47.466;19.024;2024-02-23T09:07:44;10.50;;;6.57;;
42430;SDS011;71905;47.466;19.024;2024-02-23T09:10:12;9.63;;;6.50;;
42430;SDS011;71905;47.466;19.024;2024-02-23T09:12:40;9.93;;;5.97;;
42430;SDS011;71905;47.466;19.024;2024-02-23T09:15:08;8.02;;;6.00;;
42430;SDS011;71905;47.466;19.024;2024-02-23T09:17:37;10.38;;;6.30;;
42430;SDS011;71905;47.466;19.024;2024-02-23T09:20:05;8.88;;;6.13;;
42430;SDS011;71905;47.466;19.024;2024-02-23T09:22:36;8.82;;;6.43;;
42430;SDS011;71905;47.466;19.024;2024-02-23T09:25:07;10.57;;;7.03;;
42430;SDS011;71905;47.466;19.024;2024-02-23T09:27:35;11.18;;;5.78;;
42430;SDS011;71905;47.466;19.024;2024-02-23T09:30:10;8.30;;;5.15;;
42430;SDS011;71905;47.466;19.024;2024-02-23T09:32:39;7.18;;;5.25;;
42430;SDS011;71905;47.466;19.024;2024-02-23T09:35:07;6.65;;;5.03;;
42430;SDS011;71905;47.466;19.024;2024-02-23T09:37:35;7.13;;;5.05;;
42430;SDS011;71905;47.466;19.024;2024-02-23T09:40:04;8.63;;;5.28;;
42430;SDS011;71905;47.466;19.024;2024-02-23T09:42:34;9.23;;;5.30;;
42430;SDS011;71905;47.466;19.024;2024-02-23T09:45:06;9.15;;;5.30;;
42430;SDS011;71905;47.466;19.024;2024-02-23T09:47:35;7.30;;;4.85;;
42430;SDS011;71905;47.466;19.024;2024-02-23T09:50:04;7.60;;;4.78;;
42430;SDS011;71905;47.466;19.024;2024-02-23T09:52:33;8.93;;;5.05;;
42430;SDS011;71905;47.466;19.024;2024-02-23T09:55:01;8.13;;;5.32;;
42430;SDS011;71905;47.466;19.024;2024-02-23T09:57:30;6.57;;;4.60;;
42430;SDS011;71905;47.466;19.024;2024-02-23T09:59:59;7.47;;;5.03;;
42430;SDS011;71905;47.466;19.024;2024-02-23T10:02:37;9.70;;;6.90;;
42430;SDS011;71905;47.466;19.024;2024-02-23T10:05:07;8.60;;;6.03;;
42430;SDS011;71905;47.466;19.024;2024-02-23T10:07:38;8.98;;;4.93;;
42430;SDS011;71905;47.466;19.024;2024-02-23T10:10:07;8.00;;;5.43;;
42430;SDS011;71905;47.466;19.024;2024-02-23T10:12:37;8.23;;;4.70;;
42430;SDS011;71905;47.466;19.024;2024-02-23T10:15:08;9.40;;;5.60;;
42430;SDS011;71905;47.466;19.024;2024-02-23T10:17:37;7.70;;;5.10;;
42430;SDS011;71905;47.466;19.024;2024-02-23T10:20:06;10.43;;;5.22;;
42430;SDS011;71905;47.466;19.024;2024-02-23T10:22:35;7.45;;;5.20;;
42430;SDS011;71905;47.466;19.024;2024-02-23T10:25:03;8.70;;;5.10;;
42430;SDS011;71905;47.466;19.024;2024-02-23T10:27:32;7.43;;;5.43;;
42430;SDS011;71905;47.466;19.024;2024-02-23T10:30:00;8.43;;;5.53;;
42430;SDS011;71905;47.466;19.024;2024-02-23T10:32:30;7.90;;;5.65;;
42430;SDS011;71905;47.466;19.024;2024-02-23T10:35:00;8.13;;;5.68;;
42430;SDS011;71905;47.466;19.024;2024-02-23T10:37:30;8.70;;;5.90;;
42430;SDS011;71905;47.466;19.024;2024-02-23T10:39:59;7.60;;;5.60;;
42430;SDS011;71905;47.466;19.024;2024-02-23T10:42:33;9.10;;;5.63;;
42430;SDS011;71905;47.466;19.024;2024-02-23T10:45:03;11.65;;;6.20;;
42430;SDS011;71905;47.466;19.024;2024-02-23T10:47:34;10.73;;;6.38;;
42430;SDS011;71905;47.466;19.024;2024-02-23T10:50:04;7.20;;;4.90;;
42430;SDS011;71905;47.466;19.024;2024-02-23T10:52:34;9.95;;;6.35;;
42430;SDS011;71905;47.466;19.024;2024-02-23T10:55:03;18.98;;;11.80;;
42430;SDS011;71905;47.466;19.024;2024-02-23T10:57:35;16.00;;;9.45;;
42430;SDS011;71905;47.466;19.024;2024-02-23T11:00:06;12.32;;;7.50;;
42430;SDS011;71905;47.466;19.024;2024-02-23T11:02:38;12.98;;;5.90;;
42430;SDS011;71905;47.466;19.024;2024-02-23T11:05:10;14.85;;;6.63;;
42430;SDS011;71905;47.466;19.024;2024-02-23T11:07:40;12.05;;;6.57;;
42430;SDS011;71905;47.466;19.024;2024-02-23T11:10:08;12.02;;;6.07;;
42430;SDS011;71905;47.466;19.024;2024-02-23T11:12:41;8.77;;;6.07;;
42430;SDS011;71905;47.466;19.024;2024-02-23T11:15:09;10.55;;;6.35;;
42430;SDS011;71905;47.466;19.024;2024-02-23T11:17:55;10.13;;;6.05;;
42430;SDS011;71905;47.466;19.024;2024-02-23T11:20:23;11.52;;;6.85;;
42430;SDS011;71905;47.466;19.024;2024-02-23T11:22:56;10.52;;;6.47;;
42430;SDS011;71905;47.466;19.024;2024-02-23T11:25:26;13.57;;;6.20;;
42430;SDS011;71905;47.466;19.024;2024-02-23T11:27:54;11.48;;;6.70;;
42430;SDS011;71905;47.466;19.024;2024-02-23T11:30:22;12.23;;;6.60;;
42430;SDS011;71905;47.466;19.024;2024-02-23T11:32:58;10.35;;;6.13;;
42430;SDS011;71905;47.466;19.024;2024-02-23T11:35:27;12.60;;;6.27;;
42430;SDS011;71905;47.466;19.024;2024-02-23T11:37:55;11.02;;;6.00;;
42430;SDS011;71905;47.466;19.024;2024-02-23T11:40:26;8.95;;;5.68;;
42430;SDS011;71905;47.466;19.024;2024-02-23T11:42:54;8.85;;;5.80;;
42430;SDS011;71905;47.466;19.024;2024-02-23T11:45:23;10.52;;;5.97;;
42430;SDS011;71905;47.466;19.024;2024-02-23T11:47:51;10.05;;;5.35;;
42430;SDS011;71905;47.466;19.024;2024-02-23T11:50:21;10.90;;;5.97;;
42430;SDS011;71905;47.466;19.024;2024-02-23T11:52:49;8.25;;;5.47;;
42430;SDS011;71905;47.466;19.024;2024-02-23T11:55:18;10.82;;;5.43;;
42430;SDS011;71905;47.466;19.024;2024-02-23T11:57:49;11.35;;;5.88;;
42430;SDS011;71905;47.466;19.024;2024-02-23T12:00:30;9.40;;;5.05;;
42430;SDS011;71905;47.466;19.024;2024-02-23T12:02:58;9.48;;;5.80;;
42430;SDS011;71905;47.466;19.024;2024-02-23T12:05:28;8.77;;;5.82;;
42430;SDS011;71905;47.466;19.024;2024-02-23T12:07:56;9.60;;;6.15;;
42430;SDS011;71905;47.466;19.024;2024-02-23T12:10:25;8.80;;;5.72;;
42430;SDS011;71905;47.466;19.024;2024-02-23T12:12:53;8.13;;;5.18;;
42430;SDS011;71905;47.466;19.024;2024-02-23T12:15:22;8.27;;;4.47;;
42430;SDS011;71905;47.466;19.024;2024-02-23T12:17:50;6.80;;;4.45;;
42430;SDS011;71905;47.466;19.024;2024-02-23T12:20:18;5.90;;;3.70;;
42430;SDS011;71905;47.466;19.024;2024-02-23T12:22:49;5.85;;;3.13;;
42430;SDS011;71905;47.466;19.024;2024-02-23T12:25:17;6.25;;;3.70;;
42430;SDS011;71905;47.466;19.024;2024-02-23T12:27:45;6.53;;;3.42;;
42430;SDS011;71905;47.466;19.024;2024-02-23T12:30:13;5.55;;;3.70;;
42430;SDS011;71905;47.466;19.024;2024-02-23T12:32:42;11.80;;;4.20;;
42430;SDS011;71905;47.466;19.024;2024-02-23T12:35:11;8.20;;;4.55;;
42430;SDS011;71905;47.466;19.024;2024-02-23T12:37:40;4.90;;;3.58;;
42430;SDS011;71905;47.466;19.024;2024-02-23T12:40:12;5.82;;;3.78;;
42430;SDS011;71905;47.466;19.024;2024-02-23T12:42:40;5.65;;;3.80;;
42430;SDS011;71905;47.466;19.024;2024-02-23T12:45:09;7.00;;;4.68;;
42430;SDS011;71905;47.466;19.024;2024-02-23T12:47:37;8.27;;;4.50;;
42430;SDS011;71905;47.466;19.024;2024-02-23T12:50:06;9.15;;;4.75;;
42430;SDS011;71905;47.466;19.024;2024-02-23T12:52:36;7.18;;;4.53;;
42430;SDS011;71905;47.466;19.024;2024-02-23T12:55:05;8.88;;;5.35;;
42430;SDS011;71905;47.466;19.024;2024-02-23T12:57:34;11.85;;;6.25;;
42430;SDS011;71905;47.466;19.024;2024-02-23T13:00:02;11.93;;;6.13;;
42430;SDS011;71905;47.466;19.024;2024-02-23T13:02:32;11.48;;;6.85;;
42430;SDS011;71905;47.466;19.024;2024-02-23T13:05:00;10.13;;;6.47;;
42430;SDS011;71905;47.466;19.024;2024-02-23T13:07:28;10.95;;;6.10;;
42430;SDS011;71905;47.466;19.024;2024-02-23T13:09:57;9.95;;;6.93;;
42430;SDS011;71905;47.466;19.024;2024-02-23T13:12:25;10.90;;;7.53;;
42430;SDS011;71905;47.466;19.024;2024-02-23T13:14:55;14.23;;;7.72;;
42430;SDS011;71905;47.466;19.024;2024-02-23T13:17:23;10.98;;;7.18;;
42430;SDS011;71905;47.466;19.024;2024-02-23T13:19:51;13.70;;;8.13;;
42430;SDS011;71905;47.466;19.024;2024-02-23T13:22:36;14.90;;;8.93;;
42430;SDS011;71905;47.466;19.024;2024-02-23T13:25:04;13.68;;;8.98;;
42430;SDS011;71905;47.466;19.024;2024-02-23T13:27:32;13.60;;;8.13;;
42430;SDS011;71905;47.466;19.024;2024-02-23T13:30:03;16.73;;;9.90;;
42430;SDS011;71905;47.466;19.024;2024-02-23T13:32:32;13.63;;;8.95;;
42430;SDS011;71905;47.466;19.024;2024-02-23T13:35:00;19.08;;;11.10;;
42430;SDS011;71905;47.466;19.024;2024-02-23T13:37:31;12.45;;;8.52;;
42430;SDS011;71905;47.466;19.024;2024-02-23T13:40:02;15.10;;;9.10;;
42430;SDS011;71905;47.466;19.024;2024-02-23T13:42:31;13.68;;;9.02;;
42430;SDS011;71905;47.466;19.024;2024-02-23T13:44:59;12.93;;;8.05;;
42430;SDS011;71905;47.466;19.024;2024-02-23T13:47:28;14.43;;;9.27;;
42430;SDS011;71905;47.466;19.024;2024-02-23T13:49:58;12.88;;;8.45;;
42430;SDS011;71905;47.466;19.024;2024-02-23T13:52:26;15.82;;;8.20;;
42430;SDS011;71905;47.466;19.024;2024-02-23T13:54:55;14.00;;;8.45;;
42430;SDS011;71905;47.466;19.024;2024-02-23T13:57:23;12.93;;;8.57;;
42430;SDS011;71905;47.466;19.024;2024-02-23T13:59:53;15.65;;;8.95;;
42430;SDS011;71905;47.466;19.024;2024-02-23T14:02:24;12.32;;;8.88;;
42430;SDS011;71905;47.466;19.024;2024-02-23T14:07:30;13.52;;;8.68;;
42430;SDS011;71905;47.466;19.024;2024-02-23T14:09:58;13.55;;;8.55;;
42430;SDS011;71905;47.466;19.024;2024-02-23T14:12:27;13.48;;;8.85;;
42430;SDS011;71905;47.466;19.024;2024-02-23T14:14:55;12.73;;;8.38;;
42430;SDS011;71905;47.466;19.024;2024-02-23T14:17:23;10.80;;;8.52;;
42430;SDS011;71905;47.466;19.024;2024-02-23T14:19:51;10.98;;;8.32;;
42430;SDS011;71905;47.466;19.024;2024-02-23T14:22:21;13.35;;;8.77;;
42430;SDS011;71905;47.466;19.024;2024-02-23T14:24:49;14.57;;;9.93;;
42430;SDS011;71905;47.466;19.024;2024-02-23T14:27:18;14.73;;;10.20;;
42430;SDS011;71905;47.466;19.024;2024-02-23T14:29:46;15.35;;;10.98;;
42430;SDS011;71905;47.466;19.024;2024-02-23T14:32:15;14.35;;;10.60;;
42430;SDS011;71905;47.466;19.024;2024-02-23T14:34:44;13.95;;;10.23;;
42430;SDS011;71905;47.466;19.024;2024-02-23T14:37:13;14.02;;;9.80;;
42430;SDS011;71905;47.466;19.024;2024-02-23T14:39:42;13.63;;;10.27;;
42430;SDS011;71905;47.466;19.024;2024-02-23T14:42:13;14.45;;;9.50;;
42430;SDS011;71905;47.466;19.024;2024-02-23T14:44:41;16.83;;;10.07;;
42430;SDS011;71905;47.466;19.024;2024-02-23T14:47:09;14.35;;;9.15;;